createdAt,value
2023-03-22T00:01:48.059Z,28.13
2023-03-22T00:06:50.486Z,33.13
2023-03-22T00:11:53.084Z,28.05
2023-03-22T00:16:55.814Z,29.98
2023-03-22T00:21:58.245Z,26.25
2023-03-22T00:27:01.270Z,27.70
2023-03-22T00:32:04.745Z,26.27
2023-03-22T00:37:08.368Z,31.42
2023-03-22T00:42:11.119Z,22.90
2023-03-22T00:47:14.375Z,31.33
2023-03-22T00:52:16.913Z,27.90
2023-03-22T00:57:19.522Z,25.70
2023-03-22T01:02:29.891Z,21.52
2023-03-22T01:12:39.420Z,26.80
2023-03-22T01:17:42.142Z,29.70
2023-03-22T01:22:44.767Z,28.63
2023-03-22T01:27:47.451Z,28.38
2023-03-22T01:32:49.792Z,28.33
2023-03-22T01:37:53.192Z,23.65
2023-03-22T01:42:56.469Z,38.47
2023-03-22T01:48:03.581Z,35.50
2023-03-22T01:53:13.959Z,36.17
2023-03-22T01:58:18.399Z,33.92
2023-03-22T02:03:43.728Z,37.22
2023-03-22T02:08:50.032Z,38.05
2023-03-22T02:14:09.394Z,39.78
2023-03-22T02:20:10.598Z,35.25
2023-03-22T02:25:39.316Z,26.90
2023-03-22T02:31:09.300Z,28.85
2023-03-22T02:41:34.161Z,34.25
2023-03-22T02:47:04.416Z,30.75
2023-03-22T02:52:24.379Z,34.25
2023-03-22T02:57:49.726Z,33.30
2023-03-22T03:02:57.847Z,28.73
2023-03-22T03:08:03.568Z,22.75
2023-03-22T03:13:13.503Z,24.42
2023-03-22T03:18:44.981Z,25.48
2023-03-22T03:24:00.568Z,23.55
2023-03-22T03:29:19.983Z,26.67
2023-03-22T03:34:42.412Z,24.60
2023-03-22T03:39:56.857Z,26.83
2023-03-22T03:45:00.528Z,24.77
2023-03-22T03:50:05.134Z,21.42
2023-03-22T03:55:08.317Z,20.35
2023-03-22T04:00:14.776Z,29.92
2023-03-22T04:05:28.657Z,20.10
2023-03-22T04:10:31.906Z,28.10
2023-03-22T04:15:34.957Z,23.00
2023-03-22T04:20:42.216Z,25.95
2023-03-22T04:25:50.983Z,26.70
2023-03-22T04:31:04.853Z,33.75
2023-03-22T04:36:31.391Z,28.73
2023-03-22T04:42:00.124Z,26.50
2023-03-22T04:47:03.800Z,29.50
2023-03-22T04:52:09.415Z,26.08
2023-03-22T04:57:13.169Z,40.85
2023-03-22T05:02:20.861Z,30.48
2023-03-22T05:07:24.948Z,33.53
2023-03-22T05:12:32.252Z,29.98
2023-03-22T05:17:49.799Z,38.08
2023-03-22T05:22:57.282Z,24.63
2023-03-22T05:28:03.804Z,37.70
2023-03-22T05:33:23.103Z,28.70
2023-03-22T05:38:30.977Z,32.78
2023-03-22T05:43:36.205Z,32.80
2023-03-22T05:48:40.931Z,35.47
2023-03-22T05:53:48.340Z,40.30
2023-03-22T05:58:54.966Z,46.08
2023-03-22T06:03:58.447Z,35.75
2023-03-22T06:09:16.251Z,38.05
2023-03-22T06:14:19.965Z,43.00
2023-03-22T06:19:34.627Z,37.42
2023-03-22T06:24:41.145Z,43.20
2023-03-22T06:29:51.135Z,51.33
2023-03-22T06:34:58.552Z,55.10
2023-03-22T06:40:01.117Z,47.13
2023-03-22T06:45:06.708Z,54.28
2023-03-22T06:50:12.639Z,42.30
2023-03-22T06:55:36.496Z,57.22
2023-03-22T07:00:47.791Z,51.15
2023-03-22T07:05:52.145Z,55.10
2023-03-22T07:10:54.971Z,49.92
2023-03-22T07:16:03.029Z,53.13
2023-03-22T07:21:16.022Z,56.90
2023-03-22T07:26:23.323Z,57.92
2023-03-22T07:31:26.334Z,67.90
2023-03-22T07:36:35.626Z,66.00
2023-03-22T07:41:38.289Z,56.30
2023-03-22T07:46:56.525Z,60.40
2023-03-22T07:52:06.791Z,66.13
2023-03-22T07:57:09.659Z,56.10
2023-03-22T08:02:18.258Z,53.58
2023-03-22T08:07:28.043Z,42.08
2023-03-22T08:12:32.050Z,44.60
2023-03-22T08:17:42.625Z,43.55
2023-03-22T08:22:51.392Z,41.33
2023-03-22T08:28:17.351Z,45.30
2023-03-22T08:33:22.284Z,39.67
2023-03-22T08:38:24.943Z,39.10
2023-03-22T08:43:29.359Z,40.08
2023-03-22T08:53:43.683Z,35.55
2023-03-22T08:59:15.621Z,30.58
2023-03-22T09:04:36.564Z,29.85
2023-03-22T09:09:39.294Z,40.75
2023-03-22T09:14:42.691Z,36.17
2023-03-22T09:19:48.041Z,35.38
2023-03-22T09:24:50.744Z,36.63
2023-03-22T09:29:53.519Z,34.15
2023-03-22T09:34:56.128Z,32.75
2023-03-22T09:40:01.281Z,32.58
2023-03-22T09:45:09.050Z,37.75
2023-03-22T09:50:32.449Z,29.42
2023-03-22T09:55:57.847Z,30.48
2023-03-22T10:01:18.509Z,35.47
2023-03-22T10:06:26.043Z,43.90
2023-03-22T10:11:31.118Z,42.35
2023-03-22T10:16:35.876Z,34.42
2023-03-22T10:21:38.689Z,33.53
2023-03-22T10:31:46.362Z,38.17
2023-03-22T10:36:52.072Z,37.40
2023-03-22T10:42:01.593Z,31.45
2023-03-22T10:47:09.370Z,33.63
2023-03-22T10:52:39.812Z,34.47
2023-03-22T10:57:46.846Z,31.50
2023-03-22T11:03:00.381Z,29.63
2023-03-22T11:08:03.752Z,31.33
2023-03-22T11:13:09.750Z,25.77
2023-03-22T11:18:16.036Z,33.60
2023-03-22T11:23:21.440Z,29.35
2023-03-22T11:28:34.541Z,27.95
2023-03-22T11:33:38.045Z,29.67
2023-03-22T11:38:44.872Z,30.50
2023-03-22T11:43:54.080Z,26.58
2023-03-22T11:49:06.170Z,30.05
2023-03-22T11:54:23.599Z,27.85
2023-03-22T11:59:40.248Z,23.90
2023-03-22T12:04:45.172Z,22.65
2023-03-22T12:09:58.372Z,19.45
2023-03-22T12:15:08.921Z,22.95
2023-03-22T12:25:35.003Z,22.98
2023-03-22T12:30:45.320Z,17.90
2023-03-22T12:35:51.831Z,20.23
2023-03-22T12:40:58.026Z,15.90
2023-03-22T12:46:04.966Z,28.63
2023-03-22T12:51:14.883Z,19.83
2023-03-22T12:56:21.538Z,18.77
2023-03-22T13:01:47.861Z,16.50
2023-03-22T13:06:53.837Z,13.77
2023-03-22T13:12:18.025Z,20.33
2023-03-22T13:17:23.528Z,14.90
2023-03-22T13:22:30.757Z,17.63
2023-03-22T13:27:38.731Z,13.65
2023-03-22T13:32:53.221Z,14.55
2023-03-22T13:38:07.934Z,13.85
2023-03-22T13:43:34.121Z,18.83
2023-03-22T13:48:48.996Z,19.67
2023-03-22T13:53:57.359Z,15.75
2023-03-22T13:59:00.902Z,16.55
2023-03-22T14:04:11.602Z,17.33
2023-03-22T14:09:25.571Z,18.48
2023-03-22T14:14:37.034Z,16.77
2023-03-22T14:19:42.358Z,15.93
